Time;durP1;ratioP1;P1;durP2;ratioP2;P2;SDS_P1;SDS_P2;PMS_P1;PMS_P2;Temp;Humidity;BMP_temperature;BMP_pressure;BME280_temperature;BME280_humidity;BME280_pressure;Samples;Min_cycle;Max_cycle;Signal;HPM_P1;HPM_P2
2022/04/12 00:02:43;;;;;;;33.40;19.70;;;;;;;6.70;58.54;99384.91;233346;1217;139017;-62
2022/04/12 00:07:46;;;;;;;33.70;19.70;;;;;;;6.68;58.65;99390.08;233552;1217;138816;-62
2022/04/12 00:12:51;;;;;;;33.70;19.60;;;;;;;6.70;58.95;99382.05;233374;1217;139001;-62
2022/04/12 00:23:16;;;;;;;31.40;18.30;;;;;;;6.68;58.93;99372.98;233266;1217;138941;-62
2022/04/12 00:28:20;;;;;;;34.60;18.70;;;;;;;6.62;58.89;99367.56;233494;1217;138508;-62
2022/04/12 00:33:23;;;;;;;30.80;17.70;;;;;;;6.58;59.06;99360.34;233294;1217;138900;-62
2022/04/12 00:38:27;;;;;;;35.90;20.10;;;;;;;6.54;59.23;99359.80;233313;1217;138660;-64
2022/04/12 00:43:35;;;;;;;32.40;18.80;;;;;;;6.54;59.36;99357.65;233461;1217;139059;-62
2022/04/12 00:48:38;;;;;;;34.40;19.20;;;;;;;6.55;59.37;99355.17;233352;1217;138765;-61
2022/04/12 00:53:41;;;;;;;37.60;20.00;;;;;;;6.55;59.40;99355.34;233281;1217;139194;-61
2022/04/12 00:58:48;;;;;;;34.20;19.60;;;;;;;6.61;59.13;99359.52;233420;1217;141025;-61
2022/04/12 01:03:51;;;;;;;36.20;21.70;;;;;;;6.73;59.42;99363.59;233385;1216;139349;-59
2022/04/12 01:08:54;;;;;;;36.70;20.80;;;;;;;6.83;59.41;99360.20;232776;1217;139248;-61
2022/04/12 01:13:57;;;;;;;38.40;21.80;;;;;;;6.84;59.53;99352.55;233442;1217;138722;-62
2022/04/12 01:19:00;;;;;;;40.60;22.40;;;;;;;6.88;59.43;99348.14;233652;1217;139254;-60
2022/04/12 01:24:05;;;;;;;39.30;21.00;;;;;;;6.84;59.42;99352.39;233357;1217;138719;-61
2022/04/12 01:29:08;;;;;;;42.10;21.40;;;;;;;6.77;59.48;99352.33;233407;1217;138298;-61
2022/04/12 01:34:12;;;;;;;39.70;20.80;;;;;;;6.71;59.48;99350.48;233316;1217;138511;-59
2022/04/12 01:39:15;;;;;;;42.10;19.80;;;;;;;6.63;59.43;99355.75;233366;1217;138445;-60
2022/04/12 01:44:18;;;;;;;34.60;20.30;;;;;;;6.53;59.86;99355.44;233487;1217;138267;-60
2022/04/12 01:49:21;;;;;;;34.30;22.00;;;;;;;6.44;59.74;99361.95;233296;1217;139088;-61
2022/04/12 01:54:25;;;;;;;37.00;22.00;;;;;;;6.38;60.06;99369.07;233522;1217;138884;-58
2022/04/12 01:59:28;;;;;;;36.50;22.00;;;;;;;6.33;60.34;99370.84;233268;1217;138674;-60
2022/04/12 02:04:31;;;;;;;35.50;21.80;;;;;;;6.30;60.55;99374.87;233317;1217;139071;-60
2022/04/12 02:09:34;;;;;;;41.70;23.00;;;;;;;6.29;60.70;99376.67;233336;1217;138608;-60
2022/04/12 02:14:37;;;;;;;37.80;21.40;;;;;;;6.30;60.58;99387.54;233332;1217;138972;-59
2022/04/12 02:19:40;;;;;;;34.50;20.50;;;;;;;6.33;60.88;99390.92;233467;1217;139660;-60
2022/04/12 02:24:43;;;;;;;42.20;22.30;;;;;;;6.36;60.77;99395.73;233513;1217;138960;-60
2022/04/12 02:29:47;;;;;;;41.80;23.40;;;;;;;6.43;60.71;99391.44;233325;1217;140033;-60
2022/04/12 02:34:50;;;;;;;35.80;22.30;;;;;;;6.46;60.73;99388.33;233335;1217;139010;-60
2022/04/12 02:39:53;;;;;;;39.90;23.00;;;;;;;6.45;60.67;99389.07;233261;1217;138695;-61
2022/04/12 02:44:56;;;;;;;36.40;21.70;;;;;;;6.44;60.73;99397.93;233271;1217;138846;-60
2022/04/12 02:49:59;;;;;;;41.50;22.10;;;;;;;6.42;61.06;99397.47;233406;1217;139285;-61
2022/04/12 02:55:03;;;;;;;150.40;101.00;;;;;;;6.41;60.80;99404.57;233541;1217;139442;-63
2022/04/12 03:00:07;;;;;;;42.50;26.50;;;;;;;6.47;61.51;99410.65;233411;1217;139361;-61
2022/04/12 03:05:10;;;;;;;36.20;20.50;;;;;;;6.59;61.41;99411.58;233344;1217;138308;-63
2022/04/12 03:10:13;;;;;;;41.40;21.00;;;;;;;6.55;61.04;99411.42;233440;1217;139999;-63
2022/04/12 03:15:16;;;;;;;57.40;37.80;;;;;;;6.49;61.05;99412.17;233364;1216;138523;-63
2022/04/12 03:20:19;;;;;;;38.20;20.40;;;;;;;6.50;60.94;99413.36;233428;1217;138462;-62
2022/04/12 03:25:22;;;;;;;35.90;20.70;;;;;;;6.48;60.75;99411.86;233460;1217;139437;-61
2022/04/12 03:30:26;;;;;;;34.60;21.30;;;;;;;6.50;60.95;99411.95;233467;1217;139606;-61
2022/04/12 03:35:29;;;;;;;36.20;21.00;;;;;;;6.50;60.85;99414.23;233439;1217;138726;-60
2022/04/12 03:40:32;;;;;;;35.70;21.60;;;;;;;6.45;60.86;99416.92;232992;1217;138328;-61
2022/04/12 03:45:35;;;;;;;47.00;27.40;;;;;;;6.39;60.84;99414.84;233500;1216;138755;-61
2022/04/12 03:50:39;;;;;;;321.70;192.50;;;;;;;6.42;60.91;99409.81;233401;1217;140090;-59
2022/04/12 03:55:46;;;;;;;49.80;25.50;;;;;;;6.42;61.13;99411.93;233428;1217;138542;-61
2022/04/12 04:00:49;;;;;;;43.30;22.40;;;;;;;6.28;61.12;99415.98;233411;1217;138644;-63
2022/04/12 04:05:52;;;;;;;32.60;20.10;;;;;;;6.20;60.68;99415.59;233343;1217;140005;-63
2022/04/12 04:10:55;;;;;;;35.40;20.10;;;;;;;6.11;60.81;99414.89;233361;1217;138546;-62
2022/04/12 04:15:58;;;;;;;34.80;19.90;;;;;;;6.05;61.11;99417.20;233330;1216;139109;-61
2022/04/12 04:21:02;;;;;;;35.40;20.50;;;;;;;6.01;60.88;99415.09;233337;1217;138830;-60
2022/04/12 04:26:05;;;;;;;38.10;20.60;;;;;;;5.96;60.98;99428.45;233411;1215;138688;-62
2022/04/12 04:31:08;;;;;;;42.10;21.30;;;;;;;5.91;61.43;99435.65;233435;1217;139401;-61
2022/04/12 04:36:12;;;;;;;37.30;20.10;;;;;;;5.94;61.15;99443.88;233312;1217;139546;-63
2022/04/12 04:41:15;;;;;;;34.40;20.90;;;;;;;6.00;61.35;99443.81;233281;1215;139360;-61
2022/04/12 04:46:19;;;;;;;32.60;18.90;;;;;;;6.10;61.23;99451.74;233291;1217;139482;-62
2022/04/12 04:51:22;;;;;;;33.30;19.60;;;;;;;6.18;61.33;99450.21;233382;1217;138940;-61
2022/04/12 04:56:26;;;;;;;34.80;18.50;;;;;;;6.18;60.89;99450.02;233300;1217;140390;-59
2022/04/12 05:01:29;;;;;;;33.00;19.30;;;;;;;6.13;60.68;99459.70;233094;1217;139313;-61
2022/04/12 05:06:32;;;;;;;32.20;19.10;;;;;;;6.14;60.56;99460.54;233334;1217;139160;-61
2022/04/12 05:11:35;;;;;;;34.80;19.40;;;;;;;6.19;60.82;99458.10;233359;1217;138733;-61
2022/04/12 05:16:38;;;;;;;32.40;19.30;;;;;;;6.25;60.89;99463.31;233285;1217;139422;-61
2022/04/12 05:21:42;;;;;;;33.00;17.80;;;;;;;6.37;60.56;99470.44;233343;1217;138791;-61
2022/04/12 05:26:45;;;;;;;33.50;19.00;;;;;;;6.49;60.29;99470.69;233269;1217;138966;-62
2022/04/12 05:31:48;;;;;;;34.00;17.70;;;;;;;6.61;60.31;99477.29;233407;1217;139642;-60
2022/04/12 05:36:51;;;;;;;36.40;18.60;;;;;;;6.71;60.05;99484.45;233355;1217;139694;-60
2022/04/12 05:42:01;;;;;;;36.20;19.00;;;;;;;6.83;60.08;99487.52;233318;1216;139070;-60
2022/04/12 05:47:05;;;;;;;33.50;19.60;;;;;;;6.92;59.58;99488.93;233324;1215;138995;-61
2022/04/12 05:52:09;;;;;;;38.70;19.40;;;;;;;7.00;59.66;99490.39;233329;1216;140755;-61
2022/04/12 05:57:12;;;;;;;32.30;18.30;;;;;;;7.13;59.48;99486.16;233278;1217;141030;-59
2022/04/12 06:02:20;;;;;;;38.20;18.80;;;;;;;7.21;59.03;99491.11;233317;1217;139326;-60
2022/04/12 06:07:34;;;;;;;32.50;18.40;;;;;;;7.34;59.04;99496.58;233300;1217;140938;-61
2022/04/12 06:12:38;;;;;;;34.00;18.90;;;;;;;7.47;58.78;99496.20;233448;1217;138987;-60
2022/04/12 06:17:41;;;;;;;102.60;56.20;;;;;;;7.56;58.44;99504.12;233154;1217;139078;-59
2022/04/12 06:22:45;;;;;;;39.90;22.30;;;;;;;7.70;58.61;99505.30;233160;1217;138614;-61
2022/04/12 06:27:53;;;;;;;38.80;20.20;;;;;;;7.80;58.42;99514.40;233313;1217;139010;-61
2022/04/12 06:32:56;;;;;;;39.40;20.20;;;;;;;7.91;58.31;99513.92;233284;1217;138810;-60
2022/04/12 06:38:02;;;;;;;38.50;19.40;;;;;;;7.99;57.95;99517.45;233254;1217;138634;-61
2022/04/12 06:43:06;;;;;;;34.70;19.60;;;;;;;8.08;57.69;99517.44;233421;1217;139274;-62
2022/04/12 06:48:09;;;;;;;33.30;19.20;;;;;;;8.20;57.70;99520.96;233249;1217;140242;-60
2022/04/12 06:53:12;;;;;;;43.50;21.30;;;;;;;8.33;57.68;99523.03;233259;1217;140215;-61
2022/04/12 06:58:16;;;;;;;35.50;19.30;;;;;;;8.45;57.41;99525.52;233343;1217;139049;-61
2022/04/12 07:03:20;;;;;;;42.40;21.30;;;;;;;8.57;57.18;99521.79;233219;1217;139421;-60
2022/04/12 07:08:24;;;;;;;37.40;21.30;;;;;;;8.67;57.07;99520.63;233316;1217;209933;-61
2022/04/12 07:13:27;;;;;;;50.60;29.40;;;;;;;8.79;57.02;99525.92;233298;1217;139293;-62
2022/04/12 07:18:30;;;;;;;34.30;19.70;;;;;;;9.04;57.32;99523.98;233383;1217;139310;-58
2022/04/12 07:23:36;;;;;;;40.80;19.00;;;;;;;9.19;56.34;99520.42;233197;1217;139021;-61
2022/04/12 07:28:39;;;;;;;36.20;18.30;;;;;;;9.27;56.12;99529.98;233192;1217;138872;-61
2022/04/12 07:33:42;;;;;;;34.00;18.10;;;;;;;9.34;55.51;99528.41;233344;1217;138766;-62
2022/04/12 07:38:45;;;;;;;38.60;21.00;;;;;;;9.34;54.70;99530.67;233176;1217;138781;-60
2022/04/12 07:43:49;;;;;;;36.30;21.90;;;;;;;9.44;55.29;99532.69;233343;1217;139841;-60
2022/04/12 07:48:52;;;;;;;39.10;22.00;;;;;;;9.52;55.69;99532.29;233260;1217;139097;-62
2022/04/12 07:53:55;;;;;;;38.60;20.30;;;;;;;9.58;55.62;99536.96;233236;1216;139105;-61
2022/04/12 07:58:59;;;;;;;36.80;21.30;;;;;;;9.66;55.64;99538.83;233257;1217;139071;-62
2022/04/12 08:04:02;;;;;;;34.70;21.90;;;;;;;9.75;55.53;99542.81;233482;1217;139365;-64
2022/04/12 08:09:06;;;;;;;33.10;19.20;;;;;;;9.84;55.37;99546.96;233347;1217;140300;-61
2022/04/12 08:14:09;;;;;;;34.80;21.00;;;;;;;9.90;55.12;99543.65;233416;1217;138859;-61
2022/04/12 08:19:12;;;;;;;32.40;19.90;;;;;;;9.98;55.10;99544.13;233351;1217;139508;-61
2022/04/12 08:24:15;;;;;;;30.90;16.80;;;;;;;10.06;54.82;99543.89;233268;1217;139035;-60
2022/04/12 08:29:18;;;;;;;20.90;10.70;;;;;;;10.16;54.40;99547.06;233304;1217;139220;-57
2022/04/12 08:34:21;;;;;;;13.40;7.20;;;;;;;10.27;53.70;99544.77;233308;1217;140828;-61
2022/04/12 08:39:23;;;;;;;16.00;8.70;;;;;;;10.42;53.41;99542.55;233320;1217;138725;-62
2022/04/12 08:44:27;;;;;;;17.50;9.40;;;;;;;10.58;53.32;99543.64;233495;1216;139164;-57
2022/04/12 08:49:30;;;;;;;14.50;8.80;;;;;;;10.71;52.61;99540.83;233191;1217;139460;-58
2022/04/12 08:54:34;;;;;;;16.00;7.00;;;;;;;10.85;52.83;99537.42;233519;1217;139517;-60
2022/04/12 08:59:38;;;;;;;12.30;7.00;;;;;;;11.02;52.51;99533.80;233391;1217;138773;-60
2022/04/12 09:04:41;;;;;;;13.20;6.90;;;;;;;11.19;51.92;99529.84;233300;1217;139634;-58
2022/04/12 09:09:44;;;;;;;16.40;8.60;;;;;;;11.32;51.66;99533.33;233504;1216;139188;-60
2022/04/12 09:14:54;;;;;;;13.10;6.80;;;;;;;11.42;51.21;99528.85;233494;1216;138786;-60
2022/04/12 09:19:57;;;;;;;11.80;6.80;;;;;;;11.57;50.51;99527.79;233469;1215;139518;-61
2022/04/12 09:25:02;;;;;;;12.50;6.70;;;;;;;11.70;50.48;99519.77;233521;1217;139283;-61
2022/04/12 09:30:10;;;;;;;13.90;6.60;;;;;;;11.90;50.22;99518.25;233478;1217;138976;-58
2022/04/12 09:35:14;;;;;;;15.60;8.00;;;;;;;12.09;49.91;99516.39;233305;1217;139310;-58
2022/04/12 09:40:17;;;;;;;15.50;8.20;;;;;;;12.29;49.66;99514.81;233297;1219;139449;-61
2022/04/12 09:45:30;;;;;;;14.70;8.20;;;;;;;12.42;49.33;99509.38;233326;1217;139716;-60
2022/04/12 09:50:34;;;;;;;16.30;7.90;;;;;;;12.61;49.49;99503.40;233390;1217;139445;-60
2022/04/12 09:55:46;;;;;;;14.80;8.40;;;;;;;12.78;49.02;99498.58;233330;1217;139374;-62
2022/04/12 10:00:49;;;;;;;13.00;7.90;;;;;;;12.74;48.58;99500.41;233504;1216;139681;-59
2022/04/12 10:05:54;;;;;;;15.10;7.20;;;;;;;12.75;48.27;99501.95;233279;1217;138432;-60
2022/04/12 10:10:58;;;;;;;14.50;7.50;;;;;;;12.71;47.42;99494.02;233444;1217;139092;-62
2022/04/12 10:16:01;;;;;;;14.20;7.40;;;;;;;12.55;46.65;99498.95;233515;1217;139867;-61
2022/04/12 10:21:06;;;;;;;13.20;7.70;;;;;;;12.34;46.35;99497.94;233468;1217;139197;-61
2022/04/12 10:26:11;;;;;;;15.00;7.90;;;;;;;12.36;46.73;99494.11;233398;1217;139373;-61
2022/04/12 10:31:14;;;;;;;14.60;7.70;;;;;;;12.67;47.07;99487.90;233505;1217;139269;-59
2022/04/12 10:36:54;;;;;;;10.90;6.50;;;;;;;13.08;46.87;99478.66;233479;1216;140357;-57
2022/04/12 10:42:31;;;;;;;15.10;7.40;;;;;;;13.30;46.74;99483.98;233407;1217;138932;-60
2022/04/12 10:47:36;;;;;;;14.80;6.90;;;;;;;13.52;46.18;99483.63;233332;1217;139349;-60
2022/04/12 10:52:48;;;;;;;14.40;7.40;;;;;;;13.49;45.62;99481.69;233374;1217;138783;-60
2022/04/12 10:57:53;;;;;;;11.80;7.10;;;;;;;13.44;44.79;99479.14;233515;1217;139138;-60
2022/04/12 11:02:58;;;;;;;14.10;7.20;;;;;;;13.52;44.90;99476.14;233471;1217;138899;-60
2022/04/12 11:08:31;;;;;;;15.90;7.80;;;;;;;13.80;44.66;99471.40;233575;1217;139299;-61
2022/04/12 11:13:34;;;;;;;16.40;7.70;;;;;;;14.18;44.81;99468.23;233405;1217;139059;-62
2022/04/12 11:18:57;;;;;;;13.80;6.20;;;;;;;14.54;44.55;99464.08;233258;1217;139817;-60
2022/04/12 11:24:01;;;;;;;13.40;7.20;;;;;;;14.83;43.67;99463.57;233313;1215;138920;-60
2022/04/12 11:29:13;;;;;;;11.60;6.20;;;;;;;15.14;43.12;99461.11;233367;1215;140757;-61
2022/04/12 11:34:18;;;;;;;11.90;7.10;;;;;;;15.37;42.84;99450.51;233385;1217;139358;-61
2022/04/12 11:39:22;;;;;;;14.30;7.50;;;;;;;15.66;42.93;99447.91;233333;1217;138522;-60
2022/04/12 11:44:27;;;;;;;14.00;6.80;;;;;;;15.85;42.03;99441.80;233295;1217;139008;-61
2022/04/12 11:49:33;;;;;;;11.70;6.90;;;;;;;16.10;42.08;99443.86;233584;1217;138876;-62
2022/04/12 11:54:38;;;;;;;14.00;6.90;;;;;;;16.26;41.36;99435.17;233341;1216;138913;-64
2022/04/12 11:59:44;;;;;;;12.90;6.20;;;;;;;16.36;41.31;99436.91;233344;1217;139430;-63
2022/04/12 12:04:51;;;;;;;13.10;6.80;;;;;;;16.66;41.14;99426.62;233274;1217;138652;-62
2022/04/12 12:09:59;;;;;;;13.40;6.70;;;;;;;16.83;41.32;99421.05;233363;1217;139026;-61
2022/04/12 12:15:14;;;;;;;11.90;6.40;;;;;;;17.02;41.47;99424.13;233443;1216;139086;-62
2022/04/12 12:20:19;;;;;;;9.00;6.10;;;;;;;17.23;41.06;99424.20;233283;1217;139269;-62
2022/04/12 12:25:42;;;;;;;12.20;6.20;;;;;;;17.47;40.90;99424.84;233329;1217;139869;-61
2022/04/12 12:30:48;;;;;;;10.60;6.30;;;;;;;17.70;40.49;99415.83;233263;1217;139156;-61
2022/04/12 12:35:51;;;;;;;14.30;7.00;;;;;;;17.91;39.99;99413.18;233215;1217;139211;-62
2022/04/12 12:40:58;;;;;;;10.80;5.80;;;;;;;18.18;39.72;99409.20;233379;1217;139985;-62
2022/04/12 12:46:07;;;;;;;12.40;6.20;;;;;;;18.41;39.33;99408.24;233169;1217;139349;-63
2022/04/12 12:51:12;;;;;;;10.60;5.30;;;;;;;18.70;39.41;99402.97;233387;1217;139261;-62
2022/04/12 12:56:17;;;;;;;13.40;6.20;;;;;;;18.95;38.73;99395.71;233236;1217;139670;-60
2022/04/12 13:01:21;;;;;;;10.90;5.50;;;;;;;19.07;37.53;99393.77;233358;1219;139259;-61
2022/04/12 13:06:37;;;;;;;11.80;5.60;;;;;;;19.14;37.27;99391.59;233163;1217;139828;-61
2022/04/12 13:11:44;;;;;;;10.70;5.00;;;;;;;19.20;36.82;99393.27;233335;1217;139337;-60
2022/04/12 13:16:52;;;;;;;10.40;4.90;;;;;;;19.23;36.24;99389.95;233148;1217;138858;-60
2022/04/12 13:21:56;;;;;;;101.80;73.00;;;;;;;19.40;36.30;99378.98;233264;1217;139325;-59
2022/04/12 13:26:59;;;;;;;19.70;12.00;;;;;;;19.55;37.07;99370.17;233110;1217;140037;-57
2022/04/12 13:32:03;;;;;;;17.60;10.70;;;;;;;19.47;36.95;99370.27;232863;1217;139224;-60
2022/04/12 13:37:09;;;;;;;16.20;8.20;;;;;;;19.12;37.04;99374.20;233468;1217;139575;-59
2022/04/12 13:42:13;;;;;;;16.90;8.00;;;;;;;19.07;37.60;99377.16;233249;1217;139268;-61
2022/04/12 13:47:17;;;;;;;20.00;7.50;;;;;;;19.23;37.51;99372.17;233209;1217;139596;-63
2022/04/12 13:52:21;;;;;;;17.70;6.90;;;;;;;19.27;36.97;99375.32;233323;1217;138709;-61
2022/04/12 13:57:24;;;;;;;17.20;6.70;;;;;;;19.30;36.81;99369.33;233294;1216;139933;-63
2022/04/12 14:02:28;;;;;;;11.30;5.80;;;;;;;19.17;36.32;99375.39;233189;1217;141050;-64
2022/04/12 14:07:32;;;;;;;11.40;6.10;;;;;;;18.91;36.34;99377.06;233528;1217;138743;-62
2022/04/12 14:12:34;;;;;;;9.20;5.90;;;;;;;18.95;36.47;99375.05;233366;1217;139371;-62
2022/04/12 14:17:39;;;;;;;11.80;5.60;;;;;;;19.03;36.20;99377.95;233298;1217;138835;-61
2022/04/12 14:23:02;;;;;;;12.90;6.20;;;;;;;18.93;35.72;99377.70;233297;1217;140009;-62
2022/04/12 14:28:18;;;;;;;10.00;5.70;;;;;;;18.63;35.57;99376.12;233464;1217;139881;-62
2022/04/12 14:33:21;;;;;;;14.10;6.10;;;;;;;18.22;35.45;99379.99;233398;1217;138779;-61
2022/04/12 14:38:24;;;;;;;13.20;6.40;;;;;;;17.74;35.21;99379.63;233367;1217;138477;-60
2022/04/12 14:43:28;;;;;;;10.60;5.90;;;;;;;17.30;35.23;99379.66;233633;1217;138710;-61
2022/04/12 14:48:31;;;;;;;11.70;5.90;;;;;;;17.04;36.00;99373.17;233388;1217;139096;-64
2022/04/12 14:53:34;;;;;;;10.70;6.30;;;;;;;16.89;36.36;99378.73;233477;1217;138997;-62
2022/04/12 14:58:38;;;;;;;10.40;6.30;;;;;;;16.73;36.31;99381.08;233431;1217;140095;-62
2022/04/12 15:03:41;;;;;;;14.00;6.30;;;;;;;16.55;36.05;99388.85;233420;1217;139155;-60
2022/04/12 15:08:45;;;;;;;11.30;5.70;;;;;;;16.27;35.96;99393.42;233599;1217;138841;-61
2022/04/12 15:13:48;;;;;;;9.60;6.20;;;;;;;16.03;36.11;99382.64;233523;1217;140393;-60
2022/04/12 15:18:52;;;;;;;13.10;5.90;;;;;;;15.85;36.40;99386.91;233427;1217;139034;-62
2022/04/12 15:23:56;;;;;;;12.40;6.20;;;;;;;15.70;36.34;99393.30;233397;1217;138828;-61
2022/04/12 15:28:59;;;;;;;9.30;5.50;;;;;;;15.54;36.22;99390.16;233316;1217;139090;-61
2022/04/12 15:34:02;;;;;;;10.10;5.60;;;;;;;15.39;36.33;99385.79;233335;1218;139911;-61
2022/04/12 15:39:05;;;;;;;10.00;5.90;;;;;;;15.29;36.66;99387.23;233315;1217;138923;-62
2022/04/12 15:44:09;;;;;;;8.50;6.10;;;;;;;15.23;36.98;99393.80;233479;1217;139362;-61
2022/04/12 15:49:12;;;;;;;11.50;5.60;;;;;;;15.17;37.14;99388.70;233564;1217;139181;-61
2022/04/12 15:54:15;;;;;;;14.50;7.20;;;;;;;15.15;37.17;99387.03;233403;1217;138940;-61
2022/04/12 15:59:18;;;;;;;9.00;6.10;;;;;;;15.15;37.13;99381.52;233212;1217;139082;-62
2022/04/12 16:04:21;;;;;;;8.70;5.80;;;;;;;15.16;37.08;99387.16;233114;1217;139058;-62
2022/04/12 16:09:24;;;;;;;11.90;5.80;;;;;;;15.23;36.98;99387.52;233173;1219;138855;-62
2022/04/12 16:14:27;;;;;;;10.80;6.10;;;;;;;15.68;37.23;99386.59;233329;1217;139056;-61
2022/04/12 16:19:30;;;;;;;10.90;6.20;;;;;;;16.21;37.08;99390.15;233458;1217;139352;-61
2022/04/12 16:24:34;;;;;;;11.90;6.30;;;;;;;16.24;36.31;99394.91;233347;1217;141505;-58
2022/04/12 16:29:37;;;;;;;10.00;6.00;;;;;;;16.00;36.20;99397.33;233233;1217;139657;-59
2022/04/12 16:34:40;;;;;;;10.30;5.80;;;;;;;15.76;36.03;99398.69;233312;1218;139048;-60
2022/04/12 16:39:44;;;;;;;10.20;5.60;;;;;;;15.49;35.89;99404.34;233373;1217;138757;-61
2022/04/12 16:44:47;;;;;;;8.80;5.90;;;;;;;15.15;36.13;99403.55;233306;1217;138890;-62
2022/04/12 16:49:50;;;;;;;12.60;6.70;;;;;;;14.82;36.32;99407.55;233302;1217;139051;-60
2022/04/12 16:54:53;;;;;;;11.20;6.80;;;;;;;14.58;36.53;99422.35;233320;1217;139890;-60
2022/04/12 16:59:56;;;;;;;12.20;6.80;;;;;;;14.36;36.93;99426.04;233334;1217;139583;-62
2022/04/12 17:04:59;;;;;;;10.70;6.50;;;;;;;14.12;37.34;99427.40;233240;1217;139090;-62
2022/04/12 17:10:02;;;;;;;11.90;6.50;;;;;;;13.91;37.38;99432.21;233490;1217;139272;-61
2022/04/12 17:15:05;;;;;;;12.90;6.70;;;;;;;13.71;37.62;99426.49;233434;1217;139140;-62
2022/04/12 17:20:09;;;;;;;10.20;5.90;;;;;;;13.55;37.54;99435.11;233514;1217;138595;-63
2022/04/12 17:25:14;;;;;;;17.70;10.80;;;;;;;13.73;40.00;99437.41;233830;1216;139185;-61
2022/04/12 17:30:17;;;;;;;15.00;6.70;;;;;;;14.74;40.92;99438.73;233212;1218;139622;-59
2022/04/12 17:35:21;;;;;;;12.40;7.40;;;;;;;15.19;40.26;99439.67;233147;1217;140023;-59
2022/04/12 17:40:24;;;;;;;11.00;6.20;;;;;;;15.32;39.90;99448.35;233026;1217;138566;-59
2022/04/12 17:45:27;;;;;;;14.70;5.30;;;;;;;15.21;39.27;99447.57;233305;1217;139123;-61
2022/04/12 17:50:30;;;;;;;8.40;5.60;;;;;;;14.82;38.22;99453.84;233145;1217;139395;-59
2022/04/12 17:55:35;;;;;;;7.70;4.70;;;;;;;14.32;37.92;99465.60;233223;1217;139403;-61
2022/04/12 18:00:38;;;;;;;10.00;5.70;;;;;;;13.85;38.07;99462.67;233261;1217;139067;-61
2022/04/12 18:06:03;;;;;;;12.60;5.90;;;;;;;13.42;38.41;99471.61;232995;1217;139351;-60
2022/04/12 18:11:18;;;;;;;10.60;6.40;;;;;;;13.06;38.83;99477.56;233031;1217;139012;-60
2022/04/12 18:16:21;;;;;;;85.40;52.70;;;;;;;12.76;38.99;99478.06;233260;1217;138821;-61
2022/04/12 18:21:24;;;;;;;12.10;6.90;;;;;;;12.56;39.18;99481.64;233151;1217;140178;-60
2022/04/12 18:26:29;;;;;;;14.80;7.30;;;;;;;12.36;39.63;99490.38;233172;1217;138830;-59
2022/04/12 18:31:33;;;;;;;18.30;7.70;;;;;;;12.15;39.87;99496.28;233427;1217;139234;-59
2022/04/12 18:36:36;;;;;;;14.70;6.30;;;;;;;11.95;39.73;99499.83;233073;1217;139194;-56
2022/04/12 18:41:39;;;;;;;11.10;6.70;;;;;;;11.81;40.00;99509.30;233227;1217;138738;-59
2022/04/12 18:46:43;;;;;;;15.10;7.90;;;;;;;11.71;40.24;99513.64;233090;1217;138818;-61
2022/04/12 18:51:46;;;;;;;14.60;7.80;;;;;;;11.65;40.44;99519.14;233066;1217;140003;-59
2022/04/12 18:56:53;;;;;;;20.80;9.50;;;;;;;11.58;40.54;99521.34;233218;1217;139559;-60
2022/04/12 19:01:56;;;;;;;19.20;9.10;;;;;;;11.50;40.92;99523.25;233272;1217;139459;-60
2022/04/12 19:06:59;;;;;;;16.50;8.70;;;;;;;11.41;40.90;99522.72;232995;1217;139708;-61
2022/04/12 19:12:05;;;;;;;17.80;8.50;;;;;;;11.32;40.97;99521.25;233166;1217;138787;-59
2022/04/12 19:17:09;;;;;;;19.80;9.00;;;;;;;11.24;41.33;99524.75;233157;1217;138976;-61
2022/04/12 19:22:13;;;;;;;19.30;8.90;;;;;;;11.14;41.40;99526.55;233082;1217;140948;-61
2022/04/12 19:27:16;;;;;;;18.80;10.00;;;;;;;11.03;41.38;99529.61;233197;1217;138581;-59
2022/04/12 19:32:22;;;;;;;23.30;9.10;;;;;;;10.95;41.55;99536.67;233252;1217;139042;-59
2022/04/12 19:37:25;;;;;;;20.10;10.20;;;;;;;10.84;41.95;99539.23;233147;1219;139359;-60
2022/04/12 19:42:28;;;;;;;18.00;9.90;;;;;;;10.71;42.25;99543.66;233160;1217;139110;-59
2022/04/12 19:47:35;;;;;;;24.20;10.20;;;;;;;10.57;42.57;99537.48;233188;1217;139513;-60
2022/04/12 19:52:41;;;;;;;21.50;11.30;;;;;;;10.45;42.76;99531.19;233186;1217;139643;-59
2022/04/12 19:57:45;;;;;;;22.60;12.60;;;;;;;10.36;43.05;99533.98;233042;1217;139045;-61
2022/04/12 20:02:48;;;;;;;25.70;13.30;;;;;;;10.24;43.27;99531.95;233135;1217;139734;-61
2022/04/12 20:07:51;;;;;;;26.10;15.00;;;;;;;10.12;43.66;99529.90;233242;1218;139094;-59
2022/04/12 20:12:55;;;;;;;30.30;16.70;;;;;;;10.04;44.02;99532.66;233062;1217;138948;-59
2022/04/12 20:18:00;;;;;;;29.60;16.60;;;;;;;9.95;44.29;99536.11;233142;1217;139517;-62
2022/04/12 20:23:04;;;;;;;34.00;17.50;;;;;;;9.86;44.58;99529.86;233124;1217;139096;-61
2022/04/12 20:28:07;;;;;;;38.00;19.70;;;;;;;9.80;44.93;99526.77;233128;1219;139056;-59
2022/04/12 20:33:10;;;;;;;36.20;19.10;;;;;;;9.74;44.91;99523.93;233230;1217;139110;-59
2022/04/12 20:38:14;;;;;;;36.10;20.10;;;;;;;9.67;45.10;99521.26;233155;1217;138869;-59
2022/04/12 20:43:18;;;;;;;41.00;20.50;;;;;;;9.55;45.14;99527.70;233368;1217;139513;-61
2022/04/12 20:48:22;;;;;;;38.00;21.50;;;;;;;9.43;45.06;99528.63;233093;1219;138818;-60
2022/04/12 20:53:26;;;;;;;36.50;22.30;;;;;;;9.33;45.11;99525.41;233175;1219;139113;-61
2022/04/12 20:58:29;;;;;;;46.10;23.00;;;;;;;9.24;45.28;99522.84;233076;1217;139320;-61
2022/04/12 21:03:32;;;;;;;38.20;20.70;;;;;;;9.15;45.75;99527.18;233434;1217;140641;-62
2022/04/12 21:08:35;;;;;;;41.60;22.00;;;;;;;9.05;46.08;99525.89;233171;1218;138606;-60
2022/04/12 21:13:38;;;;;;;43.10;22.10;;;;;;;8.96;46.16;99529.17;233293;1217;139197;-61
2022/04/12 21:18:41;;;;;;;445.80;348.70;;;;;;;8.88;46.62;99532.04;233210;1217;138836;-61
2022/04/12 21:23:45;;;;;;;51.20;28.70;;;;;;;8.86;46.90;99533.88;233236;1217;139534;-60
2022/04/12 21:28:48;;;;;;;43.30;23.00;;;;;;;8.77;46.91;99530.41;233205;1217;139117;-61
2022/04/12 21:33:51;;;;;;;49.70;25.30;;;;;;;8.64;47.11;99530.83;233206;1217;138971;-61
2022/04/12 21:38:56;;;;;;;49.40;26.10;;;;;;;8.55;47.31;99534.61;233209;1217;138809;-61
2022/04/12 21:44:00;;;;;;;398.50;227.80;;;;;;;8.49;48.09;99538.77;233399;1217;138782;-59
2022/04/12 21:49:03;;;;;;;71.80;35.90;;;;;;;8.58;48.23;99541.38;233342;1217;139666;-60
2022/04/12 21:54:06;;;;;;;48.50;25.70;;;;;;;8.51;48.06;99546.83;233297;1217;138708;-58
2022/04/12 21:59:09;;;;;;;51.10;26.00;;;;;;;8.33;47.75;99553.27;233221;1217;138970;-61
2022/04/12 22:04:12;;;;;;;51.40;28.00;;;;;;;8.15;47.87;99550.66;233290;1217;138847;-61
2022/04/12 22:09:15;;;;;;;48.10;27.20;;;;;;;8.01;48.27;99547.43;233218;1217;139321;-61
2022/04/12 22:14:18;;;;;;;47.10;26.50;;;;;;;7.92;48.36;99549.24;233371;1217;139356;-65
2022/04/12 22:19:22;;;;;;;48.10;24.80;;;;;;;7.85;48.40;99551.48;233334;1217;139642;-61
2022/04/12 22:24:25;;;;;;;45.00;22.80;;;;;;;7.79;48.76;99559.48;233377;1217;139671;-66
2022/04/12 22:29:28;;;;;;;44.10;23.00;;;;;;;7.73;48.48;99563.77;232215;1218;139413;-63
2022/04/12 22:34:31;;;;;;;38.10;21.60;;;;;;;7.68;48.63;99562.93;233354;1217;139362;-58
2022/04/12 22:39:34;;;;;;;36.30;21.20;;;;;;;7.66;48.68;99562.71;233180;1219;140043;-63
2022/04/12 22:44:37;;;;;;;38.30;21.30;;;;;;;7.65;48.77;99565.55;233273;1218;139576;-61
2022/04/12 22:49:40;;;;;;;39.10;21.00;;;;;;;7.62;48.58;99565.69;233293;1217;139212;-61
2022/04/12 22:54:43;;;;;;;34.20;20.50;;;;;;;7.55;48.67;99565.59;233260;1217;139382;-62
2022/04/12 22:59:46;;;;;;;40.60;21.90;;;;;;;7.51;48.99;99565.94;233085;1219;139193;-62
2022/04/12 23:04:49;;;;;;;40.20;22.60;;;;;;;7.46;48.84;99570.55;233247;1219;138786;-62
2022/04/12 23:09:53;;;;;;;39.20;23.20;;;;;;;7.45;49.08;99561.45;233272;1217;139551;-62